createdAt,value
2024-03-26T00:02:27.825Z,91.50
2024-03-26T00:07:38.504Z,88.10
2024-03-26T00:12:40.284Z,86.90
2024-03-26T00:17:42.370Z,86.20
2024-03-26T00:22:44.084Z,81.50
2024-03-26T00:27:45.857Z,75.00
2024-03-26T00:32:47.630Z,75.90
2024-03-26T00:37:49.303Z,63.70
2024-03-26T00:52:54.281Z,54.00
2024-03-26T00:57:56.200Z,61.10
2024-03-26T01:02:58.245Z,52.70
2024-03-26T01:08:00.144Z,56.20
2024-03-26T01:13:01.832Z,51.70
2024-03-26T01:18:04.002Z,48.90
2024-03-26T01:23:05.924Z,49.20
2024-03-26T01:28:07.695Z,49.20
2024-03-26T01:33:09.575Z,48.30
2024-03-26T01:38:11.525Z,47.40
2024-03-26T01:43:13.475Z,57.50
2024-03-26T01:48:15.203Z,46.20
2024-03-26T01:53:17.326Z,43.90
2024-03-26T01:58:19.376Z,35.70
2024-03-26T02:03:21.536Z,40.30
2024-03-26T02:08:24.044Z,44.30
2024-03-26T02:13:26.098Z,44.40
2024-03-26T02:18:27.879Z,36.60
2024-03-26T02:23:29.670Z,39.00
2024-03-26T02:28:31.398Z,46.80
2024-03-26T02:33:33.066Z,82.10
2024-03-26T02:38:35.084Z,62.50
2024-03-26T02:43:36.890Z,57.10
2024-03-26T02:48:38.607Z,65.80
2024-03-26T02:58:41.989Z,83.30
2024-03-26T03:03:43.679Z,78.20
2024-03-26T03:08:45.386Z,88.20
2024-03-26T03:23:50.379Z,87.90
2024-03-26T03:28:52.115Z,85.90
2024-03-26T03:33:53.770Z,79.90
2024-03-26T05:07:11.007Z,75.10
2024-03-26T05:12:12.645Z,75.70
2024-03-26T05:22:15.853Z,76.90
2024-03-26T05:32:19.067Z,80.70
2024-03-26T05:37:21.656Z,81.30
2024-03-26T05:42:23.535Z,69.10
2024-03-26T05:47:25.480Z,71.80
2024-03-26T05:52:27.184Z,84.10
2024-03-26T06:02:30.532Z,72.20
2024-03-26T06:07:32.271Z,61.90
2024-03-26T06:17:35.611Z,75.40
2024-03-26T06:27:38.926Z,76.30
2024-03-26T08:56:12.247Z,6.30
2024-03-26T09:06:26.355Z,5.60
2024-03-26T09:11:32.494Z,6.00
2024-03-26T09:16:34.221Z,7.40
2024-03-26T09:21:35.886Z,7.80
2024-03-26T09:26:37.578Z,9.80
2024-03-26T09:31:39.474Z,8.90
2024-03-26T09:41:59.718Z,7.50
2024-03-26T09:47:03.251Z,8.30
2024-03-26T09:52:10.311Z,6.80
2024-03-26T09:57:12.022Z,5.80
2024-03-26T10:02:13.795Z,5.40
2024-03-26T10:07:16.238Z,5.70
2024-03-26T10:12:21.496Z,3.10
2024-03-26T10:17:23.317Z,3.20
2024-03-26T10:22:24.960Z,5.00
2024-03-26T10:27:26.753Z,4.20
2024-03-26T10:32:28.828Z,2.60
2024-03-26T10:37:33.214Z,3.90
2024-03-26T10:42:41.822Z,2.70
2024-03-26T10:47:44.277Z,3.10
2024-03-26T10:52:48.186Z,3.80
2024-03-26T10:57:50.436Z,2.80
2024-03-26T11:02:54.578Z,1.90
2024-03-26T11:07:56.333Z,4.30
2024-03-26T11:12:58.566Z,2.10
2024-03-26T11:18:01.689Z,2.30
2024-03-26T11:23:07.151Z,6.10
2024-03-26T11:28:09.004Z,2.20
2024-03-26T11:33:10.742Z,1.90
2024-03-26T11:38:13.811Z,4.50
2024-03-26T11:43:16.293Z,4.10
2024-03-26T11:48:17.970Z,3.50
2024-03-26T11:53:19.982Z,2.50
2024-03-26T11:58:27.936Z,1.90
2024-03-26T12:03:29.634Z,7.60
2024-03-26T12:08:32.542Z,1.90
2024-03-26T12:13:34.537Z,1.40
2024-03-26T12:18:36.556Z,2.90
2024-03-26T12:23:38.769Z,7.80
2024-03-26T12:28:40.545Z,2.30
2024-03-26T12:33:43.964Z,3.70
2024-03-26T12:38:47.748Z,1.90
2024-03-26T12:43:49.606Z,1.70
2024-03-26T12:48:51.571Z,1.00
2024-03-26T12:54:02.749Z,3.50
2024-03-26T12:59:07.260Z,2.50
2024-03-26T13:04:13.429Z,1.40
2024-03-26T13:09:15.199Z,2.20
2024-03-26T13:14:16.957Z,2.90
2024-03-26T13:19:18.614Z,4.50
2024-03-26T13:24:20.715Z,2.40
2024-03-26T13:29:24.228Z,0.90
2024-03-26T13:34:25.875Z,1.50
2024-03-26T13:39:27.612Z,5.10
2024-03-26T13:44:29.459Z,3.20
2024-03-26T13:49:31.442Z,1.50
2024-03-26T13:54:35.323Z,2.10
2024-03-26T13:59:40.102Z,11.30
2024-03-26T14:04:42.114Z,3.50
2024-03-26T14:09:43.758Z,2.40
2024-03-26T14:14:45.543Z,3.00
2024-03-26T14:19:47.261Z,3.20
2024-03-26T14:24:48.975Z,2.70
2024-03-26T14:29:52.012Z,2.20
2024-03-26T14:34:53.805Z,2.90
2024-03-26T14:39:55.593Z,3.30
2024-03-26T14:44:57.320Z,2.90
2024-03-26T14:49:59.063Z,1.50
2024-03-26T14:55:00.870Z,2.60
2024-03-26T15:00:05.913Z,2.00
2024-03-26T15:05:09.297Z,1.20
2024-03-26T15:10:11.138Z,1.70
2024-03-26T15:15:12.864Z,2.30
2024-03-26T15:20:18.173Z,2.70
2024-03-26T15:25:23.358Z,6.50
2024-03-26T15:30:43.664Z,4.30
2024-03-26T15:35:45.441Z,5.20
2024-03-26T15:40:48.210Z,15.20
2024-03-26T15:45:49.911Z,5.50
2024-03-26T15:50:52.427Z,3.70
2024-03-26T15:55:54.283Z,4.00
2024-03-26T16:00:55.986Z,2.00
2024-03-26T16:05:57.697Z,23.30
2024-03-26T16:11:12.691Z,3.90
2024-03-26T16:16:16.343Z,20.60
2024-03-26T16:21:18.435Z,31.40
2024-03-26T16:26:20.219Z,17.60
2024-03-26T16:31:21.842Z,46.80
2024-03-26T16:36:23.548Z,38.30
2024-03-26T16:41:35.226Z,50.90
2024-03-26T16:46:37.995Z,34.60
2024-03-26T16:51:40.812Z,24.30
2024-03-26T16:56:42.481Z,15.00
2024-03-26T17:01:44.154Z,11.60
2024-03-26T17:06:45.772Z,9.60
2024-03-26T17:11:48.246Z,9.90
2024-03-26T17:17:05.595Z,12.50
2024-03-26T17:22:12.145Z,11.50
2024-03-26T17:27:13.943Z,13.40
2024-03-26T17:32:15.717Z,14.80
2024-03-26T17:37:17.613Z,13.20
2024-03-26T17:42:24.162Z,16.30
2024-03-26T17:47:26.394Z,10.50
2024-03-26T17:52:28.155Z,12.00
2024-03-26T17:57:29.865Z,13.90
2024-03-26T18:02:31.674Z,18.10
2024-03-26T18:07:33.268Z,16.30
2024-03-26T18:12:40.104Z,10.20
2024-03-26T18:17:41.815Z,8.70
2024-03-26T18:22:43.479Z,9.30
2024-03-26T18:27:45.293Z,10.70
2024-03-26T18:32:47.114Z,10.30
2024-03-26T18:37:51.669Z,15.20
2024-03-26T18:42:53.323Z,18.30
2024-03-26T18:47:54.943Z,24.10
2024-03-26T18:52:56.616Z,24.50
2024-03-26T18:58:02.668Z,38.80
2024-03-26T19:03:04.875Z,35.00
2024-03-26T19:08:07.034Z,41.00
2024-03-26T19:13:12.638Z,33.90
2024-03-26T19:18:18.069Z,33.90
2024-03-26T19:23:22.515Z,28.60
2024-03-26T19:28:25.721Z,27.30
2024-03-26T19:33:27.794Z,23.40
2024-03-26T19:38:29.550Z,23.10
2024-03-26T19:43:32.061Z,27.50
2024-03-26T19:48:35.565Z,35.00
2024-03-26T19:53:38.846Z,45.90
2024-03-26T19:58:43.431Z,37.60
2024-03-26T20:03:46.178Z,31.70
2024-03-26T20:08:47.995Z,30.60
2024-03-26T20:13:49.981Z,24.10
2024-03-26T20:18:51.747Z,26.70
2024-03-26T20:23:53.524Z,22.90
2024-03-26T20:28:55.712Z,19.70
2024-03-26T20:33:57.408Z,13.90
2024-03-26T20:38:59.617Z,13.80
2024-03-26T20:44:02.067Z,17.40
2024-03-26T20:49:03.831Z,25.30
2024-03-26T20:54:07.558Z,20.80
2024-03-26T20:59:10.102Z,16.30
2024-03-26T21:04:11.936Z,17.20
2024-03-26T21:09:13.627Z,11.50
2024-03-26T21:14:15.378Z,12.40
2024-03-26T21:19:18.508Z,12.70
2024-03-26T21:24:20.142Z,17.00
2024-03-26T21:39:25.041Z,24.30
2024-03-26T21:44:26.737Z,17.80
2024-03-26T21:54:31.930Z,17.40
2024-03-26T21:59:34.109Z,27.60
2024-03-26T22:04:35.983Z,26.40
2024-03-26T22:09:37.866Z,22.50
2024-03-26T22:14:39.740Z,26.20
2024-03-26T22:19:42.343Z,21.10
2024-03-26T22:24:45.652Z,19.80
2024-03-26T22:29:50.215Z,19.40
2024-03-26T22:34:52.278Z,17.80
2024-03-26T22:39:53.958Z,17.40
2024-03-26T22:55:01.629Z,17.90
2024-03-26T23:00:22.332Z,15.10
2024-03-26T23:05:23.976Z,13.50
2024-03-26T23:10:25.737Z,15.90
2024-03-26T23:15:27.464Z,14.50
2024-03-26T23:20:29.148Z,12.70
2024-03-26T23:25:31.254Z,21.30
2024-03-26T23:30:32.860Z,29.40
2024-03-26T23:40:36.555Z,20.10
2024-03-26T23:45:38.237Z,14.10
2024-03-26T23:50:39.870Z,14.30
2024-03-26T23:55:41.588Z,14.30
